Time;durP1;ratioP1;P1;durP2;ratioP2;P2;SDS_P1;SDS_P2;PMS_P1;PMS_P2;Temp;Humidity;BMP_temperature;BMP_pressure;BME280_temperature;BME280_humidity;BME280_pressure;Samples;Min_cycle;Max_cycle;Signal;HPM_P1;HPM_P2
2021/07/21 00:02:20;;;;;;;0.70;0.20;;;25.60;45.80;;;;;;5034288;28;20026;-85
2021/07/21 00:04:46;;;;;;;5.30;0.77;;;25.60;45.80;;;;;;5054979;28;20371;-82
2021/07/21 00:07:13;;;;;;;0.60;0.20;;;25.50;45.80;;;;;;5057270;28;20112;-84
2021/07/21 00:09:39;;;;;;;0.52;0.20;;;25.50;45.90;;;;;;5055744;28;20056;-84
2021/07/21 00:14:50;;;;;;;2.25;0.43;;;25.40;46.10;;;;;;5044198;28;20040;-83
2021/07/21 00:17:22;;;;;;;5.43;0.30;;;25.40;46.10;;;;;;5034880;28;20029;-86
2021/07/21 00:20:09;;;;;;;0.90;0.10;;;25.40;46.80;;;;;;5054042;28;20029;-84
2021/07/21 00:22:44;;;;;;;0.40;0.20;;;25.30;46.10;;;;;;5054776;28;20032;-84
2021/07/21 00:25:14;;;;;;;0.22;0.10;;;25.30;46.20;;;;;;5057031;28;20036;-83
2021/07/21 00:27:41;;;;;;;0.32;0.25;;;25.20;46.20;;;;;;5022739;28;20435;-85
2021/07/21 00:30:09;;;;;;;1.00;0.22;;;25.20;46.30;;;;;;5021131;28;20461;-83
2021/07/21 00:32:35;;;;;;;0.35;0.10;;;25.20;46.30;;;;;;5020845;28;20045;-84
2021/07/21 00:35:03;;;;;;;0.52;0.10;;;25.20;46.40;;;;;;5051580;28;20037;-83
2021/07/21 00:37:29;;;;;;;9.00;0.32;;;25.20;46.40;;;;;;5057353;28;20035;-83
2021/07/21 00:39:55;;;;;;;0.90;0.22;;;25.10;46.50;;;;;;5037760;28;20414;-84
2021/07/21 00:42:21;;;;;;;1.30;0.45;;;25.00;46.50;;;;;;5020181;28;20048;-83
2021/07/21 00:44:48;;;;;;;0.60;0.32;;;24.90;46.60;;;;;;5021208;28;20469;-84
2021/07/21 00:47:14;;;;;;;1.98;0.30;;;24.90;46.70;;;;;;5017557;28;20037;-84
2021/07/21 00:49:41;;;;;;;1.48;0.45;;;24.90;46.80;;;;;;5055645;28;20025;-83
2021/07/21 00:52:08;;;;;;;0.73;0.20;;;24.90;46.80;;;;;;5037767;28;20036;-84
2021/07/21 00:54:35;;;;;;;0.70;0.43;;;24.80;46.90;;;;;;5055227;28;20063;-84
2021/07/21 00:57:03;;;;;;;0.38;0.25;;;24.70;47.00;;;;;;5037730;28;20378;-85
2021/07/21 00:59:32;;;;;;;1.85;0.25;;;24.70;47.10;;;;;;5020205;28;20024;-84
2021/07/21 01:01:59;;;;;;;1.52;0.38;;;24.60;47.20;;;;;;5050597;28;20041;-84
2021/07/21 01:04:25;;;;;;;0.68;0.47;;;24.60;47.30;;;;;;5057207;28;20040;-85
2021/07/21 01:06:52;;;;;;;0.77;0.38;;;24.50;47.30;;;;;;5036940;28;20029;-84
2021/07/21 01:09:18;;;;;;;0.90;0.40;;;24.50;47.40;;;;;;5019246;28;20037;-84
2021/07/21 01:12:15;;;;;;;1.08;0.30;;;24.50;47.40;;;;;;5037304;28;20025;-83
2021/07/21 01:14:44;;;;;;;0.95;0.40;;;24.50;47.60;;;;;;5039828;28;20044;-85
2021/07/21 01:17:15;;;;;;;1.63;0.52;;;24.40;47.50;;;;;;5050639;28;20482;-83
2021/07/21 01:19:54;;;;;;;3.17;0.20;;;24.40;47.50;;;;;;5021122;28;20029;-83
2021/07/21 01:22:27;;;;;;;0.47;0.20;;;24.40;47.50;;;;;;5036731;28;20478;-84
2021/07/21 01:25:16;;;;;;;2.75;0.32;;;24.40;47.60;;;;;;5054968;28;20052;-83
2021/07/21 01:27:53;;;;;;;0.75;0.28;;;24.40;47.70;;;;;;5021856;28;20052;-83
2021/07/21 01:30:34;;;;;;;1.70;0.98;;;24.40;47.60;;;;;;5021585;28;20047;-85
2021/07/21 01:33:03;;;;;;;0.82;0.32;;;24.40;47.80;;;;;;5005423;28;20049;-84
2021/07/21 01:35:51;;;;;;;2.47;0.68;;;24.30;47.80;;;;;;5035793;28;20388;-83
2021/07/21 01:38:19;;;;;;;2.58;0.43;;;24.30;47.90;;;;;;5005805;28;20036;-82
2021/07/21 01:40:48;;;;;;;1.67;0.20;;;24.30;47.90;;;;;;5035933;28;20028;-84
2021/07/21 01:43:19;;;;;;;0.52;0.32;;;24.20;48.00;;;;;;5036133;28;20389;-82
2021/07/21 01:45:46;;;;;;;0.15;0.00;;;24.20;48.10;;;;;;5020243;28;20033;-83
2021/07/21 01:48:14;;;;;;;0.30;0.10;;;24.20;48.20;;;;;;5036817;28;20041;-86
2021/07/21 01:50:41;;;;;;;2.42;0.80;;;24.10;48.20;;;;;;5053710;28;20037;-83
2021/07/21 01:53:07;;;;;;;1.77;0.60;;;24.10;48.30;;;;;;5016214;28;20037;-83
2021/07/21 01:55:33;;;;;;;5.22;0.47;;;24.10;48.40;;;;;;5038719;28;20048;-84
2021/07/21 01:57:59;;;;;;;0.43;0.17;;;24.10;48.50;;;;;;5020195;28;20041;-83
2021/07/21 02:00:25;;;;;;;1.83;0.45;;;24.00;48.50;;;;;;5018679;28;20036;-82
2021/07/21 02:02:54;;;;;;;3.03;0.55;;;24.00;48.70;;;;;;5012731;28;20389;-84
2021/07/21 02:05:21;;;;;;;3.63;0.35;;;23.90;48.70;;;;;;5023533;28;20044;-84
2021/07/21 02:07:47;;;;;;;1.20;0.28;;;23.90;48.80;;;;;;5031077;28;20047;-85
2021/07/21 02:10:18;;;;;;;0.35;0.17;;;23.80;48.90;;;;;;5030011;28;20044;-84
2021/07/21 02:12:46;;;;;;;0.60;0.10;;;23.80;49.00;;;;;;5046664;28;20036;-84
2021/07/21 02:15:12;;;;;;;0.55;0.30;;;23.70;49.10;;;;;;5034039;28;20044;-84
2021/07/21 02:17:39;;;;;;;2.40;0.63;;;23.80;49.10;;;;;;5032976;28;20044;-85
2021/07/21 02:20:07;;;;;;;4.70;0.68;;;23.80;49.20;;;;;;5033414;28;20033;-84
2021/07/21 02:22:33;;;;;;;0.38;0.10;;;23.80;49.20;;;;;;5046983;28;20037;-85
2021/07/21 02:24:59;;;;;;;4.20;0.52;;;23.70;49.20;;;;;;5031743;28;20046;-84
2021/07/21 02:27:26;;;;;;;0.57;0.20;;;23.70;49.30;;;;;;5045451;28;20032;-84
2021/07/21 02:29:52;;;;;;;0.57;0.32;;;23.70;49.80;;;;;;5034997;28;20048;-84
2021/07/21 02:32:23;;;;;;;1.25;0.85;;;23.60;49.50;;;;;;5032513;28;20052;-83
2021/07/21 02:34:49;;;;;;;3.00;0.50;;;23.60;49.60;;;;;;5052605;28;20033;-84
2021/07/21 02:37:16;;;;;;;0.20;0.10;;;23.50;49.60;;;;;;5034645;28;20036;-84
2021/07/21 02:39:46;;;;;;;0.55;0.10;;;23.50;49.70;;;;;;5056358;28;20374;-82
2021/07/21 02:42:12;;;;;;;1.20;0.23;;;23.50;49.80;;;;;;5057887;28;20036;-83
2021/07/21 02:44:38;;;;;;;8.40;1.00;;;23.50;49.80;;;;;;5041164;28;20033;-83
2021/07/21 02:47:05;;;;;;;0.30;0.10;;;23.50;49.90;;;;;;5037131;28;20482;-83
2021/07/21 02:49:31;;;;;;;0.63;0.30;;;23.50;49.90;;;;;;5041454;28;20033;-84
2021/07/21 02:52:29;;;;;;;0.22;0.00;;;23.50;50.00;;;;;;5039787;28;20494;-85
2021/07/21 02:54:58;;;;;;;0.32;0.17;;;23.40;50.10;;;;;;5041724;28;20048;-84
2021/07/21 02:57:26;;;;;;;0.50;0.10;;;23.40;50.10;;;;;;5039513;28;20033;-83
2021/07/21 02:59:54;;;;;;;0.40;0.30;;;23.40;50.10;;;;;;5039715;28;20032;-83
2021/07/21 03:02:22;;;;;;;0.98;0.28;;;23.40;50.20;;;;;;5003791;28;20036;-84
2021/07/21 03:04:49;;;;;;;0.35;0.20;;;23.40;50.30;;;;;;5037610;28;20516;-84
2021/07/21 03:07:15;;;;;;;1.38;0.35;;;23.40;50.30;;;;;;5059150;28;20033;-84
2021/07/21 03:09:42;;;;;;;0.77;0.38;;;23.30;50.30;;;;;;5023161;28;20033;-85
2021/07/21 03:12:09;;;;;;;0.40;0.08;;;23.30;50.40;;;;;;5023090;28;20481;-85
2021/07/21 03:14:37;;;;;;;1.42;0.22;;;23.30;50.50;;;;;;5037433;28;20048;-83
2021/07/21 03:17:03;;;;;;;0.77;0.30;;;23.20;50.70;;;;;;5034561;28;20040;-83
2021/07/21 03:19:30;;;;;;;0.80;0.38;;;23.10;50.80;;;;;;5041378;28;20032;-83
2021/07/21 03:21:57;;;;;;;1.10;0.47;;;23.00;51.00;;;;;;5006930;28;20033;-83
2021/07/21 03:24:24;;;;;;;4.00;0.30;;;22.90;51.10;;;;;;5039065;28;20055;-84
2021/07/21 03:26:50;;;;;;;1.60;0.32;;;22.90;51.20;;;;;;5039378;28;20036;-83
2021/07/21 03:29:18;;;;;;;1.17;0.25;;;22.90;51.20;;;;;;5035760;28;20044;-83
2021/07/21 03:31:44;;;;;;;1.92;0.57;;;22.80;51.20;;;;;;5021320;28;20414;-85
2021/07/21 03:34:11;;;;;;;0.43;0.43;;;22.80;51.30;;;;;;5037842;28;20040;-83
2021/07/21 03:36:39;;;;;;;0.52;0.15;;;22.80;51.40;;;;;;5021894;28;20417;-83
2021/07/21 03:39:06;;;;;;;1.27;0.40;;;22.70;51.40;;;;;;5022151;28;20037;-83
2021/07/21 03:41:34;;;;;;;6.15;0.52;;;22.70;51.50;;;;;;5054442;28;20031;-83
2021/07/21 03:44:02;;;;;;;1.77;0.43;;;22.60;51.60;;;;;;5052864;28;20017;-84
2021/07/21 03:46:28;;;;;;;0.90;0.15;;;22.60;51.70;;;;;;5039782;28;20478;-84
2021/07/21 03:48:54;;;;;;;2.33;0.60;;;22.60;51.80;;;;;;5038830;28;20045;-83
2021/07/21 03:51:20;;;;;;;1.20;0.32;;;22.60;51.90;;;;;;5022065;28;20037;-83
2021/07/21 03:53:46;;;;;;;0.90;0.38;;;22.50;52.00;;;;;;5037422;28;20024;-84
2021/07/21 03:56:12;;;;;;;3.88;0.75;;;22.40;52.10;;;;;;5018635;28;20033;-83
2021/07/21 03:58:39;;;;;;;4.63;0.45;;;22.40;52.20;;;;;;5039027;28;20029;-84
2021/07/21 04:01:05;;;;;;;1.08;0.20;;;22.40;52.30;;;;;;5053409;28;20477;-84
2021/07/21 04:03:31;;;;;;;5.78;0.20;;;22.30;52.30;;;;;;5038662;28;20025;-84
2021/07/21 04:05:57;;;;;;;2.08;0.13;;;22.30;52.30;;;;;;5022040;28;20504;-82
2021/07/21 04:08:23;;;;;;;1.13;0.45;;;22.30;52.40;;;;;;5036453;28;20017;-83
2021/07/21 04:10:51;;;;;;;4.55;0.77;;;22.30;52.40;;;;;;5036402;28;20037;-83
2021/07/21 04:13:17;;;;;;;0.52;0.22;;;22.30;52.40;;;;;;5038253;28;20512;-85
2021/07/21 04:15:44;;;;;;;2.20;0.40;;;22.30;52.50;;;;;;5037496;28;20048;-83
2021/07/21 04:18:10;;;;;;;0.45;0.10;;;22.30;52.50;;;;;;5005726;28;20478;-82
2021/07/21 04:20:36;;;;;;;2.15;0.22;;;22.30;52.60;;;;;;5019872;28;20028;-83
2021/07/21 04:23:02;;;;;;;0.90;0.25;;;22.20;52.60;;;;;;5034149;28;20025;-83
2021/07/21 04:25:28;;;;;;;1.52;0.57;;;22.20;52.70;;;;;;5040050;28;20021;-85
2021/07/21 04:27:54;;;;;;;2.20;0.60;;;22.20;52.70;;;;;;5021671;28;20029;-83
2021/07/21 04:30:21;;;;;;;0.75;0.20;;;22.20;52.80;;;;;;5020297;28;20529;-83
2021/07/21 04:32:47;;;;;;;0.28;0.10;;;22.20;52.80;;;;;;5036671;28;20040;-83
2021/07/21 04:35:15;;;;;;;0.70;0.38;;;22.10;52.90;;;;;;5017465;28;20410;-83
2021/07/21 04:37:42;;;;;;;0.08;0.00;;;22.10;53.00;;;;;;5037354;28;20044;-84
2021/07/21 04:40:10;;;;;;;1.83;0.30;;;22.10;53.00;;;;;;5038477;28;20466;-84
2021/07/21 04:42:36;;;;;;;2.05;0.47;;;22.00;53.10;;;;;;5055509;28;20036;-83
2021/07/21 04:45:04;;;;;;;3.88;0.15;;;22.00;53.20;;;;;;5036991;28;20032;-82
2021/07/21 04:47:30;;;;;;;0.38;0.22;;;22.00;53.30;;;;;;5037131;28;20474;-83
2021/07/21 04:49:56;;;;;;;0.30;0.20;;;22.00;53.40;;;;;;5017968;28;20052;-85
2021/07/21 04:52:23;;;;;;;0.30;0.20;;;21.90;53.50;;;;;;5037259;28;20032;-82
2021/07/21 04:54:50;;;;;;;0.30;0.00;;;21.80;53.60;;;;;;5056284;28;20053;-84
2021/07/21 04:57:18;;;;;;;2.08;0.20;;;21.80;53.70;;;;;;5037726;28;20028;-83
2021/07/21 04:59:44;;;;;;;2.63;0.30;;;21.80;53.80;;;;;;5052751;28;20040;-83
2021/07/21 05:02:10;;;;;;;1.25;0.60;;;21.80;53.90;;;;;;5050898;28;20029;-83
2021/07/21 05:04:36;;;;;;;0.35;0.30;;;21.80;53.90;;;;;;5038823;28;20033;-85
2021/07/21 05:07:03;;;;;;;1.17;0.38;;;21.80;53.90;;;;;;5055649;28;20025;-83
2021/07/21 05:09:29;;;;;;;0.43;0.25;;;21.80;54.00;;;;;;5053238;28;20493;-83
2021/07/21 05:11:55;;;;;;;7.05;0.65;;;21.80;54.60;;;;;;5053650;28;20033;-83
2021/07/21 05:14:21;;;;;;;1.17;0.00;;;21.80;54.00;;;;;;5034758;28;20363;-85
2021/07/21 05:16:47;;;;;;;0.75;0.20;;;21.80;54.00;;;;;;5035260;28;20044;-85
2021/07/21 05:19:13;;;;;;;0.90;0.50;;;21.90;54.00;;;;;;5056470;28;20390;-84
2021/07/21 05:21:39;;;;;;;0.75;0.50;;;21.90;54.00;;;;;;5054899;28;20033;-83
2021/07/21 05:24:05;;;;;;;0.52;0.20;;;22.00;53.90;;;;;;5054976;28;20025;-84
2021/07/21 05:26:32;;;;;;;0.50;0.40;;;22.20;53.80;;;;;;5019731;28;20393;-83
2021/07/21 05:28:58;;;;;;;1.10;0.38;;;22.30;53.70;;;;;;5050655;28;20052;-84
2021/07/21 05:31:24;;;;;;;0.52;0.08;;;22.40;53.60;;;;;;5038427;28;20049;-83
2021/07/21 05:33:50;;;;;;;0.47;0.15;;;22.50;53.50;;;;;;5037178;28;20580;-84
2021/07/21 05:36:19;;;;;;;1.88;0.43;;;22.60;53.50;;;;;;5020211;28;20056;-84
2021/07/21 05:38:46;;;;;;;0.77;0.32;;;22.70;53.60;;;;;;5052385;28;20191;-83
2021/07/21 05:41:12;;;;;;;0.73;0.38;;;22.80;53.40;;;;;;5033214;28;20482;-86
2021/07/21 05:43:38;;;;;;;0.30;0.20;;;22.90;53.40;;;;;;5055294;28;20029;-84
2021/07/21 05:46:04;;;;;;;1.83;0.52;;;23.00;53.20;;;;;;5051871;28;20382;-84
2021/07/21 05:48:30;;;;;;;1.65;0.47;;;23.10;53.10;;;;;;5039251;28;20035;-84
2021/07/21 05:50:56;;;;;;;3.45;0.40;;;23.20;53.00;;;;;;5057526;28;20028;-83
2021/07/21 05:53:22;;;;;;;0.68;0.10;;;23.30;52.90;;;;;;5038927;28;20025;-84
2021/07/21 05:55:48;;;;;;;1.08;0.25;;;23.50;52.80;;;;;;5039208;28;20434;-84
2021/07/21 05:58:15;;;;;;;1.48;0.55;;;23.60;53.40;;;;;;5060074;28;20032;-83
2021/07/21 06:00:42;;;;;;;1.83;0.30;;;23.70;52.70;;;;;;5057896;28;20037;-84
2021/07/21 06:03:08;;;;;;;6.18;0.52;;;23.70;52.70;;;;;;5040878;28;20032;-83
2021/07/21 06:05:37;;;;;;;1.13;0.10;;;23.70;52.70;;;;;;5057970;28;20368;-83
2021/07/21 06:08:04;;;;;;;0.38;0.20;;;23.70;52.90;;;;;;5036545;28;20498;-83
2021/07/21 06:10:30;;;;;;;0.10;0.03;;;23.70;52.90;;;;;;5060324;28;20040;-82
2021/07/21 06:12:56;;;;;;;1.98;0.20;;;23.80;52.90;;;;;;5040356;28;20029;-83
2021/07/21 06:15:27;;;;;;;0.17;0.10;;;23.80;52.80;;;;;;5040468;28;20053;-84
2021/07/21 06:17:53;;;;;;;0.08;0.05;;;23.80;52.80;;;;;;5032070;28;20397;-84
2021/07/21 06:20:19;;;;;;;0.95;0.20;;;24.00;52.80;;;;;;5037810;28;20029;-85
2021/07/21 06:22:45;;;;;;;6.28;0.52;;;24.10;52.70;;;;;;5057614;28;20032;-83
2021/07/21 06:25:12;;;;;;;0.98;0.15;;;24.10;52.60;;;;;;5058289;28;20036;-83
2021/07/21 06:27:38;;;;;;;0.35;0.10;;;24.20;52.60;;;;;;5024083;28;20059;-83
2021/07/21 06:30:06;;;;;;;2.00;0.88;;;24.30;52.40;;;;;;5038723;28;20405;-83
2021/07/21 06:32:34;;;;;;;0.68;0.22;;;24.50;52.30;;;;;;5056290;28;20044;-83
2021/07/21 06:35:01;;;;;;;0.55;0.40;;;24.60;52.10;;;;;;5019986;28;20035;-84
2021/07/21 06:37:27;;;;;;;0.70;0.30;;;24.70;52.00;;;;;;5042228;28;20466;-85
2021/07/21 06:39:53;;;;;;;2.90;1.30;;;24.70;52.10;;;;;;5057576;28;20033;-84
2021/07/21 06:42:19;;;;;;;1.00;0.30;;;24.70;52.10;;;;;;5040158;28;20029;-83
2021/07/21 06:44:45;;;;;;;0.32;0.05;;;24.80;52.10;;;;;;5057799;28;20021;-84
2021/07/21 06:47:11;;;;;;;1.20;0.60;;;24.90;52.00;;;;;;5035950;28;20041;-83
2021/07/21 06:49:37;;;;;;;0.82;0.47;;;24.90;52.00;;;;;;5041170;28;20021;-82
2021/07/21 06:52:04;;;;;;;0.47;0.20;;;25.00;52.50;;;;;;5058218;28;20473;-84
2021/07/21 06:54:30;;;;;;;0.90;0.28;;;25.10;51.80;;;;;;5057269;28;20029;-84
2021/07/21 06:56:56;;;;;;;1.95;0.50;;;25.20;51.70;;;;;;5049674;28;20037;-83
2021/07/21 06:59:24;;;;;;;2.65;0.43;;;25.30;51.60;;;;;;5068082;28;20036;-84
2021/07/21 07:01:50;;;;;;;12.80;0.85;;;25.40;51.50;;;;;;5037235;28;20044;-83
2021/07/21 07:04:16;;;;;;;0.93;0.43;;;25.50;51.50;;;;;;5039404;28;20029;-84
2021/07/21 07:06:42;;;;;;;3.78;0.82;;;25.60;51.40;;;;;;5057306;28;20048;-84
2021/07/21 07:09:08;;;;;;;0.38;0.20;;;25.70;51.40;;;;;;5055579;28;20033;-84
2021/07/21 07:11:35;;;;;;;0.32;0.13;;;25.70;51.20;;;;;;5056993;28;20032;-83
2021/07/21 07:14:01;;;;;;;1.05;0.22;;;25.80;51.10;;;;;;5053713;28;20024;-83
2021/07/21 07:16:27;;;;;;;0.13;0.10;;;26.00;51.00;;;;;;5040911;28;20029;-85
2021/07/21 07:18:53;;;;;;;1.80;0.22;;;26.20;50.80;;;;;;5039304;28;20033;-84
2021/07/21 07:21:19;;;;;;;0.95;0.40;;;26.40;51.10;;;;;;5057167;28;20021;-85
2021/07/21 07:23:47;;;;;;;0.35;0.20;;;26.50;50.40;;;;;;5038796;28;20032;-83
2021/07/21 07:26:13;;;;;;;0.50;0.17;;;26.70;50.30;;;;;;5053520;28;20021;-84
2021/07/21 07:28:39;;;;;;;1.67;0.30;;;26.80;50.10;;;;;;5057533;28;20033;-85
2021/07/21 07:31:05;;;;;;;1.80;0.57;;;26.90;50.00;;;;;;5057133;28;20049;-84
2021/07/21 07:33:31;;;;;;;0.40;0.28;;;27.00;50.00;;;;;;5057250;28;20501;-84
2021/07/21 07:35:57;;;;;;;1.13;0.30;;;27.10;49.80;;;;;;5023305;28;20040;-83
2021/07/21 07:38:23;;;;;;;3.40;0.52;;;27.20;49.70;;;;;;5018623;28;20033;-83
2021/07/21 07:40:50;;;;;;;1.27;0.40;;;27.30;49.60;;;;;;5054877;28;20033;-83
2021/07/21 07:43:16;;;;;;;0.40;0.20;;;27.50;49.50;;;;;;5058471;28;20021;-84
2021/07/21 07:45:42;;;;;;;0.20;0.20;;;27.70;49.30;;;;;;5056148;28;20037;-85
2021/07/21 07:48:08;;;;;;;1.05;0.50;;;27.80;49.20;;;;;;5037566;28;20363;-84
2021/07/21 07:50:34;;;;;;;1.65;0.60;;;27.90;49.10;;;;;;5055930;28;20037;-84
2021/07/21 07:53:00;;;;;;;1.70;0.50;;;28.00;48.90;;;;;;5033970;28;20045;-85
2021/07/21 07:55:26;;;;;;;3.22;0.60;;;28.10;48.80;;;;;;5057557;28;20032;-84
2021/07/21 07:57:52;;;;;;;5.10;0.55;;;28.20;48.80;;;;;;5038776;28;20515;-84
2021/07/21 08:00:19;;;;;;;1.88;0.35;;;28.30;48.60;;;;;;5055889;28;20044;-85
2021/07/21 08:02:45;;;;;;;0.90;0.38;;;28.30;48.50;;;;;;5037265;28;20064;-84
2021/07/21 08:05:12;;;;;;;1.45;0.10;;;28.30;48.50;;;;;;5052413;28;20021;-84
2021/07/21 08:07:38;;;;;;;0.35;0.20;;;28.30;48.40;;;;;;5056920;28;20578;-83
2021/07/21 08:10:04;;;;;;;0.68;0.30;;;28.40;48.40;;;;;;5056712;28;20386;-84
2021/07/21 08:12:30;;;;;;;1.25;0.68;;;28.40;48.20;;;;;;5054959;28;20040;-85
2021/07/21 08:14:57;;;;;;;3.40;1.13;;;28.40;48.20;;;;;;5054643;28;20469;-84
2021/07/21 08:17:23;;;;;;;0.60;0.30;;;28.60;48.10;;;;;;5035577;28;20044;-85
2021/07/21 08:19:50;;;;;;;0.75;0.50;;;28.80;47.90;;;;;;5036164;28;20036;-85
2021/07/21 08:22:16;;;;;;;2.10;0.35;;;28.90;47.60;;;;;;5037756;28;20025;-85
2021/07/21 08:24:43;;;;;;;1.73;0.60;;;28.90;47.40;;;;;;5021750;28;20478;-84
2021/07/21 08:27:09;;;;;;;1.95;0.75;;;29.10;47.40;;;;;;5054499;28;20044;-85
2021/07/21 08:29:35;;;;;;;1.10;0.52;;;29.10;47.20;;;;;;5055382;28;20029;-84
2021/07/21 08:32:01;;;;;;;0.73;0.50;;;29.10;47.20;;;;;;5050797;28;20520;-84
2021/07/21 08:34:27;;;;;;;4.20;0.82;;;29.10;47.10;;;;;;5057689;28;20040;-85
2021/07/21 08:36:54;;;;;;;2.25;0.55;;;29.10;46.90;;;;;;5037136;28;20410;-84
2021/07/21 08:39:20;;;;;;;1.83;0.82;;;29.20;46.90;;;;;;5036879;28;20020;-85
2021/07/21 08:41:46;;;;;;;1.27;0.40;;;29.30;46.80;;;;;;5055749;28;20024;-84
2021/07/21 08:44:15;;;;;;;1.17;0.68;;;29.40;46.50;;;;;;5051774;28;20041;-85
2021/07/21 08:46:41;;;;;;;1.67;0.80;;;29.60;46.20;;;;;;5055301;28;20033;-85
2021/07/21 08:49:07;;;;;;;10.10;1.23;;;29.60;46.10;;;;;;5056110;28;20036;-85
2021/07/21 08:51:34;;;;;;;3.05;0.82;;;29.60;46.10;;;;;;5037348;28;20033;-85
2021/07/21 08:54:00;;;;;;;3.90;0.52;;;29.80;46.00;;;;;;5057782;28;20037;-85
2021/07/21 08:56:26;;;;;;;2.65;1.05;;;29.90;45.90;;;;;;5048752;28;20052;-84
2021/07/21 08:58:52;;;;;;;2.00;0.47;;;29.90;45.80;;;;;;5018098;28;20037;-85
2021/07/21 09:01:19;;;;;;;2.63;0.50;;;30.10;45.60;;;;;;5056578;28;20043;-83
2021/07/21 09:03:45;;;;;;;0.60;0.28;;;30.20;45.40;;;;;;5020827;28;20048;-84
2021/07/21 09:06:14;;;;;;;1.52;0.60;;;30.20;45.30;;;;;;5053506;28;20135;-85
2021/07/21 09:08:40;;;;;;;1.58;0.70;;;30.20;45.10;;;;;;5055139;28;20028;-85
2021/07/21 09:11:06;;;;;;;2.20;0.75;;;30.30;45.00;;;;;;5050719;28;20034;-85
2021/07/21 09:13:36;;;;;;;1.65;0.82;;;30.30;45.00;;;;;;5039516;28;20028;-85
2021/07/21 09:16:04;;;;;;;0.35;0.25;;;30.40;44.70;;;;;;5053678;28;20044;-85
2021/07/21 09:18:31;;;;;;;1.25;0.52;;;30.40;44.40;;;;;;5021180;28;20032;-85
2021/07/21 09:20:57;;;;;;;5.18;0.35;;;30.40;44.50;;;;;;5054722;28;20020;-84
2021/07/21 09:23:39;;;;;;;2.60;0.60;;;30.50;44.40;;;;;;5051007;28;20033;-84
2021/07/21 09:26:08;;;;;;;1.17;0.20;;;30.70;44.10;;;;;;5050044;28;20037;-84
2021/07/21 09:28:39;;;;;;;0.77;0.40;;;30.80;44.00;;;;;;5046095;28;20389;-85
2021/07/21 09:31:05;;;;;;;;;;;30.80;43.80;;;;;;5035912;28;20053;-85
2021/07/21 09:33:32;;;;;;;0.88;0.15;;;30.90;43.60;;;;;;5035815;28;19966;-84
2021/07/21 09:35:58;;;;;;;1.15;0.15;;;30.90;43.30;;;;;;5053576;28;20052;-87
2021/07/21 09:38:26;;;;;;;1.55;0.77;;;30.90;43.30;;;;;;5052701;28;20021;-84
2021/07/21 09:40:54;;;;;;;1.60;0.30;;;30.90;42.80;;;;;;5051954;28;20036;-85
2021/07/21 09:43:25;;;;;;;3.13;0.82;;;30.80;42.70;;;;;;5056759;28;20025;-85
2021/07/21 09:45:52;;;;;;;6.10;1.15;;;30.70;42.50;;;;;;5034541;28;20041;-85
2021/07/21 09:48:21;;;;;;;1.45;0.43;;;30.70;42.50;;;;;;5055425;28;20028;-85
2021/07/21 09:50:47;;;;;;;0.10;0.00;;;30.70;42.50;;;;;;5047636;28;20025;-85
2021/07/21 09:53:14;;;;;;;1.45;0.70;;;30.80;42.30;;;;;;5051004;28;20021;-84
2021/07/21 09:55:45;;;;;;;1.55;0.30;;;30.90;42.20;;;;;;5037320;28;20032;-85
2021/07/21 09:58:26;;;;;;;0.93;0.40;;;30.90;42.00;;;;;;5054637;28;20029;-84
2021/07/21 10:00:52;;;;;;;1.75;0.35;;;31.00;41.60;;;;;;5054281;28;20513;-84
2021/07/21 10:03:20;;;;;;;0.90;0.00;;;30.90;41.20;;;;;;5053064;28;20036;-84
2021/07/21 10:05:54;;;;;;;1.20;0.22;;;30.80;41.00;;;;;;5051027;28;20032;-84
2021/07/21 10:08:41;;;;;;;1.02;0.15;;;30.80;40.80;;;;;;5031253;28;20045;-84
2021/07/21 10:11:30;;;;;;;1.05;0.25;;;30.80;40.80;;;;;;5032507;28;20467;-84
2021/07/21 10:14:03;;;;;;;1.00;0.45;;;30.90;40.70;;;;;;5046951;28;20043;-85
2021/07/21 10:16:53;;;;;;;1.38;0.32;;;30.90;40.50;;;;;;5037557;28;20394;-86
2021/07/21 10:19:19;;;;;;;0.40;0.20;;;31.00;40.40;;;;;;5054114;28;20493;-84
2021/07/21 10:21:51;;;;;;;1.08;0.43;;;31.10;40.10;;;;;;5054385;28;20478;-84
2021/07/21 10:24:18;;;;;;;2.33;0.50;;;31.10;39.70;;;;;;5035809;28;20036;-85
2021/07/21 10:26:45;;;;;;;2.22;0.47;;;31.10;39.80;;;;;;5036651;28;20032;-84
2021/07/21 10:29:11;;;;;;;1.17;0.22;;;31.20;39.80;;;;;;5032691;28;20414;-85
2021/07/21 10:31:38;;;;;;;0.35;0.20;;;31.30;39.40;;;;;;5020476;28;20045;-85
2021/07/21 10:34:04;;;;;;;1.70;0.77;;;31.30;40.00;;;;;;5036981;28;20497;-84
2021/07/21 10:36:31;;;;;;;0.20;0.13;;;31.30;39.20;;;;;;5040017;28;20045;-85
2021/07/21 10:39:00;;;;;;;1.65;0.85;;;31.30;38.90;;;;;;5057237;28;20033;-84
2021/07/21 10:41:30;;;;;;;3.10;0.30;;;31.30;38.90;;;;;;5036734;28;20041;-84
2021/07/21 10:43:57;;;;;;;1.35;0.47;;;31.30;38.90;;;;;;5037085;28;20029;-84
2021/07/21 10:46:44;;;;;;;2.20;0.73;;;31.40;38.80;;;;;;5041136;28;20025;-84
2021/07/21 10:49:19;;;;;;;0.93;0.30;;;31.50;38.90;;;;;;5058718;28;20041;-84
2021/07/21 10:54:42;;;;;;;0.98;0.50;;;31.50;38.50;;;;;;5043220;28;20037;-84
2021/07/21 11:00:24;;;;;;;2.05;0.93;;;31.70;38.30;;;;;;5044375;28;20036;-84
2021/07/21 11:02:52;;;;;;;0.65;0.30;;;31.80;38.20;;;;;;5024150;28;20040;-85
2021/07/21 11:05:37;;;;;;;1.85;0.52;;;31.80;38.10;;;;;;5020013;28;20044;-84
2021/07/21 11:08:04;;;;;;;0.90;0.32;;;31.80;37.90;;;;;;5053189;28;20044;-84
2021/07/21 11:10:37;;;;;;;0.17;0.10;;;31.80;37.90;;;;;;5041424;28;20044;-81
2021/07/21 11:13:08;;;;;;;0.32;0.10;;;31.80;37.70;;;;;;5056060;28;20029;-83
2021/07/21 11:15:35;;;;;;;1.60;0.35;;;31.80;37.70;;;;;;5038685;28;20029;-84
2021/07/21 11:18:26;;;;;;;0.25;0.10;;;31.90;37.70;;;;;;5039362;28;20052;-85
2021/07/21 11:21:01;;;;;;;1.10;0.52;;;32.00;37.60;;;;;;5057177;28;20032;-84
2021/07/21 11:23:48;;;;;;;0.77;0.40;;;32.00;37.50;;;;;;5053178;28;20390;-84
2021/07/21 11:26:34;;;;;;;1.70;0.80;;;31.90;37.40;;;;;;5021929;28;20024;-84
2021/07/21 11:29:22;;;;;;;0.70;0.35;;;31.90;37.50;;;;;;5053103;28;20035;-85
2021/07/21 11:31:53;;;;;;;0.32;0.20;;;31.90;37.60;;;;;;5066143;28;20052;-84
2021/07/21 11:34:39;;;;;;;0.85;0.30;;;32.10;37.50;;;;;;5057191;28;20033;-85
2021/07/21 11:37:09;;;;;;;0.30;0.13;;;32.10;37.50;;;;;;5057338;28;20406;-84
2021/07/21 11:39:40;;;;;;;0.93;0.40;;;32.10;37.50;;;;;;5056917;28;20031;-85
2021/07/21 11:42:07;;;;;;;0.10;0.00;;;32.20;37.50;;;;;;5055321;28;20377;-83
2021/07/21 11:44:34;;;;;;;1.83;0.60;;;32.30;37.40;;;;;;5055463;28;20464;-84
2021/07/21 11:47:02;;;;;;;5.07;0.57;;;32.30;37.20;;;;;;5034633;28;20050;-84
2021/07/21 11:49:30;;;;;;;1.00;0.35;;;32.30;37.20;;;;;;5040878;28;20032;-84
2021/07/21 11:51:58;;;;;;;2.10;0.35;;;32.30;37.90;;;;;;5056612;28;20025;-84
2021/07/21 11:54:27;;;;;;;0.25;0.13;;;32.40;37.30;;;;;;5038918;28;20378;-84
2021/07/21 11:56:57;;;;;;;2.03;0.47;;;32.40;37.20;;;;;;5038476;28;20045;-84
2021/07/21 11:59:30;;;;;;;0.82;0.63;;;32.40;37.10;;;;;;5054082;28;20029;-84
2021/07/21 12:02:06;;;;;;;1.23;0.80;;;32.40;37.00;;;;;;5052948;28;20036;-85
2021/07/21 12:04:32;;;;;;;1.45;0.63;;;32.30;37.00;;;;;;5051209;28;20048;-85
2021/07/21 12:06:59;;;;;;;0.93;0.30;;;32.20;37.00;;;;;;5057240;28;20473;-85
2021/07/21 12:09:29;;;;;;;0.70;0.47;;;32.30;37.00;;;;;;5020585;28;20032;-84
2021/07/21 12:11:56;;;;;;;1.70;0.40;;;32.40;36.80;;;;;;5021219;28;20037;-83
2021/07/21 12:14:23;;;;;;;0.70;0.20;;;32.50;36.70;;;;;;5053271;28;20033;-84
2021/07/21 12:16:50;;;;;;;1.88;0.85;;;32.50;36.60;;;;;;5036197;28;20041;-84
2021/07/21 12:19:16;;;;;;;2.28;0.38;;;32.50;36.50;;;;;;5059053;28;20028;-84
2021/07/21 12:21:42;;;;;;;1.70;0.50;;;32.60;36.50;;;;;;5057098;28;20033;-85
2021/07/21 12:24:12;;;;;;;1.27;0.60;;;32.60;36.50;;;;;;5056284;28;20025;-84
2021/07/21 12:26:45;;;;;;;1.83;0.57;;;32.60;36.30;;;;;;5055030;28;20040;-85
2021/07/21 12:29:11;;;;;;;2.30;0.70;;;32.70;36.10;;;;;;5017152;28;20047;-84
2021/07/21 12:31:37;;;;;;;0.80;0.35;;;32.70;35.90;;;;;;5054911;28;20516;-83
2021/07/21 12:34:14;;;;;;;2.25;0.60;;;32.70;35.80;;;;;;5036961;28;20032;-84
2021/07/21 12:36:47;;;;;;;3.22;0.28;;;32.60;35.70;;;;;;5055145;28;20064;-84
2021/07/21 12:39:14;;;;;;;1.65;0.45;;;32.70;35.60;;;;;;5042737;28;20025;-84
2021/07/21 12:41:41;;;;;;;1.85;0.40;;;32.70;35.50;;;;;;5066039;28;20044;-84
2021/07/21 12:44:17;;;;;;;0.45;0.28;;;32.80;35.50;;;;;;5051106;28;20036;-85
2021/07/21 12:46:44;;;;;;;0.40;0.15;;;32.80;35.50;;;;;;5020167;28;20033;-84
2021/07/21 12:49:11;;;;;;;1.00;0.47;;;32.80;35.40;;;;;;5052789;28;20059;-84
2021/07/21 12:51:37;;;;;;;1.55;0.70;;;32.90;35.40;;;;;;5037915;28;20458;-84
2021/07/21 12:54:04;;;;;;;3.28;0.50;;;33.00;35.30;;;;;;5021422;28;20055;-84
2021/07/21 12:56:31;;;;;;;2.03;0.40;;;33.10;35.30;;;;;;5020180;28;20473;-84
2021/07/21 12:59:12;;;;;;;1.02;0.40;;;33.10;35.10;;;;;;5033212;28;20067;-85
2021/07/21 13:01:38;;;;;;;0.55;0.43;;;33.20;35.00;;;;;;5064565;28;20029;-85
2021/07/21 13:04:04;;;;;;;0.60;0.20;;;33.20;34.80;;;;;;5052942;28;20386;-85